Time;durP1;ratioP1;P1;durP2;ratioP2;P2;SDS_P1;SDS_P2;PMS_P1;PMS_P2;Temp;Humidity;BMP_temperature;BMP_pressure;BME280_temperature;BME280_humidity;BME280_pressure;Samples;Min_cycle;Max_cycle;Signal;HPM_P1;HPM_P2
2024/01/14 00:01:58;;;;;;;7.43;1.48;;;;;;;;;;5033592;28;20045;-58
2024/01/14 00:04:24;;;;;;;5.85;1.30;;;;;;;;;;5035626;28;20044;-58
2024/01/14 00:06:50;;;;;;;6.68;1.73;;;;;;;;;;5035121;28;20037;-58
2024/01/14 00:09:19;;;;;;;9.82;1.60;;;;;;;;;;5037752;28;20435;-59
2024/01/14 00:11:45;;;;;;;9.30;1.50;;;;;;;;;;5035438;28;20045;-59
2024/01/14 00:14:11;;;;;;;6.78;1.05;;;;;;;;;;5035354;28;20603;-58
2024/01/14 00:16:37;;;;;;;4.95;0.82;;;;;;;;;;5038037;28;20041;-59
2024/01/14 00:19:05;;;;;;;6.97;1.63;;;;;;;;;;5033807;28;20239;-59
2024/01/14 00:21:31;;;;;;;8.20;1.48;;;;;;;;;;5032039;28;20084;-61
2024/01/14 00:23:57;;;;;;;3.88;0.98;;;;;;;;;;5038937;28;20418;-59
2024/01/14 00:26:24;;;;;;;5.13;1.05;;;;;;;;;;5032953;28;20273;-59
2024/01/14 00:28:54;;;;;;;8.52;1.10;;;;;;;;;;5034937;28;20124;-59
2024/01/14 00:31:20;;;;;;;3.38;0.75;;;;;;;;;;5032105;28;20124;-59
2024/01/14 00:33:46;;;;;;;4.15;0.52;;;;;;;;;;5029613;28;20095;-59
2024/01/14 00:36:12;;;;;;;4.63;0.60;;;;;;;;;;5031121;28;20048;-59
2024/01/14 00:38:38;;;;;;;6.00;0.77;;;;;;;;;;5029303;28;20042;-59
2024/01/14 00:41:04;;;;;;;0.15;0.10;;;;;;;;;;5032094;28;20568;-59
2024/01/14 00:43:31;;;;;;;1.35;0.28;;;;;;;;;;5033465;28;20048;-59
2024/01/14 00:45:57;;;;;;;1.35;0.57;;;;;;;;;;5035116;28;20045;-59
2024/01/14 00:48:23;;;;;;;1.80;0.70;;;;;;;;;;5034407;28;20040;-58
2024/01/14 00:50:49;;;;;;;3.40;0.95;;;;;;;;;;5036526;28;20418;-59
2024/01/14 00:53:15;;;;;;;2.10;0.60;;;;;;;;;;5040631;28;20037;-59
2024/01/14 00:55:41;;;;;;;1.58;0.47;;;;;;;;;;5042168;28;20128;-59
2024/01/14 00:58:06;;;;;;;4.00;0.82;;;;;;;;;;5044885;28;20522;-59
2024/01/14 01:00:32;;;;;;;4.13;1.02;;;;;;;;;;5044726;28;20047;-59
2024/01/14 01:02:58;;;;;;;5.55;0.95;;;;;;;;;;5042933;28;20060;-60
2024/01/14 01:05:24;;;;;;;6.47;0.70;;;;;;;;;;5038662;28;20119;-59
2024/01/14 01:07:50;;;;;;;4.88;0.85;;;;;;;;;;5040532;28;20058;-59
2024/01/14 01:10:16;;;;;;;2.45;0.93;;;;;;;;;;5040015;28;20442;-59
2024/01/14 01:12:42;;;;;;;1.13;0.73;;;;;;;;;;5041146;28;20029;-60
2024/01/14 01:15:09;;;;;;;3.55;1.02;;;;;;;;;;5040255;28;20041;-59
2024/01/14 01:17:35;;;;;;;3.38;0.70;;;;;;;;;;5040651;28;20045;-59
2024/01/14 01:20:01;;;;;;;3.50;1.38;;;;;;;;;;5037775;28;20056;-59
2024/01/14 01:22:28;;;;;;;3.38;0.50;;;;;;;;;;5038710;28;20087;-59
2024/01/14 01:24:54;;;;;;;4.93;1.10;;;;;;;;;;5037464;28;20096;-59
2024/01/14 01:27:20;;;;;;;1.55;0.50;;;;;;;;;;5039215;28;20045;-58
2024/01/14 01:29:46;;;;;;;2.70;0.93;;;;;;;;;;5037643;28;20632;-59
2024/01/14 01:32:13;;;;;;;2.22;0.40;;;;;;;;;;5039738;28;20041;-58
2024/01/14 01:34:39;;;;;;;0.82;0.32;;;;;;;;;;5035140;28;20044;-59
2024/01/14 01:37:05;;;;;;;3.15;0.47;;;;;;;;;;5035850;28;20588;-59
2024/01/14 01:39:31;;;;;;;0.35;0.35;;;;;;;;;;5036969;28;20545;-59
2024/01/14 01:41:59;;;;;;;1.08;0.22;;;;;;;;;;5036545;28;21456;-59
2024/01/14 01:44:25;;;;;;;0.50;0.10;;;;;;;;;;5033559;28;20095;-60
2024/01/14 01:46:51;;;;;;;1.42;0.60;;;;;;;;;;5036065;28;20083;-59
2024/01/14 01:49:17;;;;;;;0.57;0.13;;;;;;;;;;5032728;28;20041;-59
2024/01/14 01:51:49;;;;;;;2.35;0.40;;;;;;;;;;5037087;28;20133;-59
2024/01/14 01:54:18;;;;;;;0.20;0.10;;;;;;;;;;5022861;28;20044;-59
2024/01/14 01:56:44;;;;;;;0.65;0.10;;;;;;;;;;5041582;28;20145;-59
2024/01/14 01:59:10;;;;;;;0.75;0.10;;;;;;;;;;5040373;28;20040;-59
2024/01/14 02:01:36;;;;;;;1.70;0.10;;;;;;;;;;5035757;28;20049;-60
2024/01/14 02:04:03;;;;;;;0.32;0.15;;;;;;;;;;5039331;28;20045;-59
2024/01/14 02:06:29;;;;;;;1.05;0.20;;;;;;;;;;5040545;28;20114;-59
2024/01/14 02:08:55;;;;;;;1.25;0.40;;;;;;;;;;5037396;28;20071;-59
2024/01/14 02:11:21;;;;;;;1.45;0.65;;;;;;;;;;5041106;28;20089;-59
2024/01/14 02:13:47;;;;;;;2.45;0.50;;;;;;;;;;5040509;28;20053;-59
2024/01/14 02:16:13;;;;;;;1.95;0.30;;;;;;;;;;5043295;28;20037;-59
2024/01/14 02:18:39;;;;;;;2.50;0.38;;;;;;;;;;5041495;28;20045;-60
2024/01/14 02:21:06;;;;;;;1.85;0.63;;;;;;;;;;5038713;28;20521;-59
2024/01/14 02:23:35;;;;;;;2.15;0.88;;;;;;;;;;5038936;28;20053;-59
2024/01/14 02:26:01;;;;;;;3.30;0.50;;;;;;;;;;5036503;28;20514;-59
2024/01/14 02:28:27;;;;;;;1.65;0.35;;;;;;;;;;5039477;28;20123;-59
2024/01/14 02:30:54;;;;;;;1.52;0.40;;;;;;;;;;5037958;28;20131;-59
2024/01/14 02:33:20;;;;;;;2.40;0.93;;;;;;;;;;5038879;28;20040;-59
2024/01/14 02:35:46;;;;;;;5.80;1.10;;;;;;;;;;5035193;28;20045;-59
2024/01/14 02:38:12;;;;;;;6.25;1.00;;;;;;;;;;5041672;28;20043;-59
2024/01/14 02:40:38;;;;;;;2.85;0.70;;;;;;;;;;5037067;28;20045;-59
2024/01/14 02:43:04;;;;;;;5.45;0.73;;;;;;;;;;5037102;28;20517;-60
2024/01/14 02:45:30;;;;;;;4.63;1.00;;;;;;;;;;5032995;28;20057;-60
2024/01/14 02:47:57;;;;;;;3.08;0.40;;;;;;;;;;5039852;28;20617;-60
2024/01/14 02:50:23;;;;;;;1.73;0.35;;;;;;;;;;5038258;28;20041;-60
2024/01/14 02:52:49;;;;;;;8.07;1.80;;;;;;;;;;5039210;28;20056;-59
2024/01/14 02:55:15;;;;;;;5.15;0.85;;;;;;;;;;5043863;28;20156;-59
2024/01/14 02:57:42;;;;;;;3.60;0.70;;;;;;;;;;5043994;28;20049;-59
2024/01/14 03:00:08;;;;;;;3.42;0.70;;;;;;;;;;5040788;28;20136;-59
2024/01/14 03:02:34;;;;;;;1.27;0.30;;;;;;;;;;5041090;28;20036;-59
2024/01/14 03:05:00;;;;;;;1.30;0.30;;;;;;;;;;5041168;28;20518;-58
2024/01/14 03:07:26;;;;;;;1.58;0.63;;;;;;;;;;5040017;28;20071;-59
2024/01/14 03:09:52;;;;;;;1.60;0.50;;;;;;;;;;5037787;28;20053;-59
2024/01/14 03:12:18;;;;;;;3.28;0.90;;;;;;;;;;5037491;28;20132;-60
2024/01/14 03:14:44;;;;;;;0.80;0.40;;;;;;;;;;5036117;28;20029;-59
2024/01/14 03:17:10;;;;;;;3.03;0.60;;;;;;;;;;5039005;28;20043;-59
2024/01/14 03:19:36;;;;;;;5.53;0.90;;;;;;;;;;5040546;28;20044;-59
2024/01/14 03:22:02;;;;;;;1.40;0.65;;;;;;;;;;5034402;28;20154;-59
2024/01/14 03:24:28;;;;;;;3.70;0.82;;;;;;;;;;5040466;28;20518;-59
2024/01/14 03:26:54;;;;;;;1.45;0.30;;;;;;;;;;5036111;28;20049;-59
2024/01/14 03:29:20;;;;;;;2.35;0.60;;;;;;;;;;5033387;28;20148;-59
2024/01/14 03:31:46;;;;;;;3.22;1.08;;;;;;;;;;5032740;28;20574;-59
2024/01/14 03:34:12;;;;;;;3.22;1.42;;;;;;;;;;5034636;28;20083;-59
2024/01/14 03:36:38;;;;;;;2.80;0.88;;;;;;;;;;5035530;28;20111;-59
2024/01/14 03:39:05;;;;;;;0.80;0.28;;;;;;;;;;5032412;28;20045;-60
2024/01/14 03:41:31;;;;;;;1.92;0.38;;;;;;;;;;5035566;28;20041;-59
2024/01/14 03:43:57;;;;;;;1.40;0.38;;;;;;;;;;5035379;28;20077;-59
2024/01/14 03:46:23;;;;;;;1.15;0.25;;;;;;;;;;5031418;28;20359;-59
2024/01/14 03:48:49;;;;;;;1.95;0.38;;;;;;;;;;5030850;28;20580;-60
2024/01/14 03:51:15;;;;;;;0.40;0.15;;;;;;;;;;5037687;28;20044;-59
2024/01/14 03:53:41;;;;;;;0.30;0.20;;;;;;;;;;5037717;28;20049;-59
2024/01/14 03:56:07;;;;;;;0.22;0.10;;;;;;;;;;5037858;28;20033;-59
2024/01/14 03:58:33;;;;;;;0.77;0.20;;;;;;;;;;5041995;28;20033;-59
2024/01/14 04:00:59;;;;;;;1.10;0.13;;;;;;;;;;5039368;28;20098;-59
2024/01/14 04:03:25;;;;;;;0.00;0.00;;;;;;;;;;5041220;28;20049;-60
2024/01/14 04:05:51;;;;;;;0.00;0.00;;;;;;;;;;5039795;28;20379;-59
2024/01/14 04:08:17;;;;;;;0.10;0.10;;;;;;;;;;5041339;28;20037;-59
2024/01/14 04:10:43;;;;;;;0.20;0.10;;;;;;;;;;5038961;28;20045;-59
2024/01/14 04:13:09;;;;;;;0.15;0.00;;;;;;;;;;5040682;28;20133;-58
2024/01/14 04:15:35;;;;;;;0.82;0.10;;;;;;;;;;5040793;28;20049;-59
2024/01/14 04:18:01;;;;;;;1.65;0.20;;;;;;;;;;5035109;28;20044;-59
2024/01/14 04:20:27;;;;;;;1.90;0.30;;;;;;;;;;5039946;28;20041;-59
2024/01/14 04:22:53;;;;;;;0.10;0.10;;;;;;;;;;5041465;28;20107;-59
2024/01/14 04:25:19;;;;;;;0.63;0.20;;;;;;;;;;5040170;28;20068;-59
2024/01/14 04:27:45;;;;;;;0.47;0.10;;;;;;;;;;5040657;28;20040;-58
2024/01/14 04:30:11;;;;;;;0.90;0.60;;;;;;;;;;5039887;28;20136;-59
2024/01/14 04:32:37;;;;;;;0.13;0.00;;;;;;;;;;5040220;28;20435;-59
2024/01/14 04:35:04;;;;;;;0.13;0.13;;;;;;;;;;5041420;28;20127;-59
2024/01/14 04:37:30;;;;;;;0.08;0.08;;;;;;;;;;5038990;28;20061;-59
2024/01/14 04:39:56;;;;;;;1.02;0.63;;;;;;;;;;5035233;28;20041;-59
2024/01/14 04:42:23;;;;;;;0.00;0.00;;;;;;;;;;5038336;28;20076;-59
2024/01/14 04:44:49;;;;;;;0.35;0.17;;;;;;;;;;5035513;28;20047;-59
2024/01/14 04:47:15;;;;;;;2.05;0.35;;;;;;;;;;5038373;28;20156;-59
2024/01/14 04:49:41;;;;;;;0.80;0.32;;;;;;;;;;5038909;28;20519;-58
2024/01/14 04:52:07;;;;;;;1.75;0.10;;;;;;;;;;5031978;28;20089;-59
2024/01/14 04:54:33;;;;;;;0.20;0.03;;;;;;;;;;5034795;28;20267;-60
2024/01/14 04:56:59;;;;;;;0.35;0.10;;;;;;;;;;5034901;28;20045;-59
2024/01/14 04:59:25;;;;;;;0.50;0.10;;;;;;;;;;5031638;28;20129;-58
2024/01/14 05:01:51;;;;;;;0.20;0.10;;;;;;;;;;5034998;28;20034;-59
2024/01/14 05:04:17;;;;;;;2.92;0.50;;;;;;;;;;5040369;28;20398;-59
2024/01/14 05:06:43;;;;;;;0.45;0.10;;;;;;;;;;5034617;28;20070;-59
2024/01/14 05:09:09;;;;;;;0.15;0.08;;;;;;;;;;5035852;28;20491;-59
2024/01/14 05:11:35;;;;;;;0.10;0.10;;;;;;;;;;5036588;28;20099;-58
2024/01/14 05:14:01;;;;;;;0.10;0.05;;;;;;;;;;5039391;28;20045;-59
2024/01/14 05:16:27;;;;;;;0.10;0.10;;;;;;;;;;5041396;28;20048;-59
2024/01/14 05:18:54;;;;;;;0.13;0.00;;;;;;;;;;5040266;28;20079;-59
2024/01/14 05:21:20;;;;;;;0.20;0.10;;;;;;;;;;5033264;28;20041;-59
2024/01/14 05:23:46;;;;;;;0.55;0.20;;;;;;;;;;5041185;28;20040;-59
2024/01/14 05:26:12;;;;;;;0.10;0.10;;;;;;;;;;5038737;28;20430;-59
2024/01/14 05:28:38;;;;;;;0.10;0.00;;;;;;;;;;5036654;28;20041;-58
2024/01/14 05:31:04;;;;;;;1.58;0.20;;;;;;;;;;5040501;28;20741;-59
2024/01/14 05:33:30;;;;;;;0.88;0.35;;;;;;;;;;5041238;28;20098;-59
2024/01/14 05:35:56;;;;;;;0.50;0.20;;;;;;;;;;5036276;28;20041;-59
2024/01/14 05:38:22;;;;;;;0.75;0.32;;;;;;;;;;5038557;28;20049;-59
2024/01/14 05:40:48;;;;;;;0.40;0.17;;;;;;;;;;5040131;28;20044;-59
2024/01/14 05:43:14;;;;;;;0.35;0.10;;;;;;;;;;5036967;28;20415;-58
2024/01/14 05:45:41;;;;;;;0.77;0.52;;;;;;;;;;5037499;28;20038;-59
2024/01/14 05:48:07;;;;;;;1.45;0.45;;;;;;;;;;5037661;28;20572;-59
2024/01/14 05:50:33;;;;;;;0.57;0.25;;;;;;;;;;5038736;28;20051;-59
2024/01/14 05:52:59;;;;;;;0.32;0.03;;;;;;;;;;5033683;28;20036;-59
2024/01/14 05:55:25;;;;;;;0.30;0.10;;;;;;;;;;5034968;28;20080;-59
2024/01/14 05:57:51;;;;;;;1.30;0.30;;;;;;;;;;5039212;28;20472;-59
2024/01/14 06:00:22;;;;;;;2.35;0.38;;;;;;;;;;5035878;28;20506;-59
2024/01/14 06:02:48;;;;;;;0.60;0.30;;;;;;;;;;5018486;28;20671;-59
2024/01/14 06:05:15;;;;;;;0.40;0.10;;;;;;;;;;5037382;28;20032;-58
2024/01/14 06:07:41;;;;;;;0.40;0.10;;;;;;;;;;5043899;28;20041;-58
2024/01/14 06:10:07;;;;;;;1.75;0.10;;;;;;;;;;5037308;28;20546;-58
2024/01/14 06:12:33;;;;;;;0.50;0.20;;;;;;;;;;5027252;28;20094;-59
2024/01/14 06:14:59;;;;;;;0.77;0.30;;;;;;;;;;5044372;28;20065;-59
2024/01/14 06:17:25;;;;;;;0.20;0.10;;;;;;;;;;5022458;28;20051;-59
2024/01/14 06:19:51;;;;;;;0.03;0.00;;;;;;;;;;5041385;28;20438;-59
2024/01/14 06:22:16;;;;;;;0.10;0.00;;;;;;;;;;5039471;28;20063;-59
2024/01/14 06:24:44;;;;;;;0.65;0.20;;;;;;;;;;5042053;28;20182;-59
2024/01/14 06:27:10;;;;;;;1.90;0.30;;;;;;;;;;5040997;28;20455;-58
2024/01/14 06:29:36;;;;;;;0.60;0.43;;;;;;;;;;5038105;28;20466;-59
2024/01/14 06:32:02;;;;;;;1.15;0.17;;;;;;;;;;5035746;28;20041;-59
2024/01/14 06:34:28;;;;;;;0.35;0.20;;;;;;;;;;5043581;28;20047;-59
2024/01/14 06:36:54;;;;;;;1.77;0.13;;;;;;;;;;5037252;28;20036;-59
2024/01/14 06:39:20;;;;;;;0.17;0.10;;;;;;;;;;5033239;28;20482;-59
2024/01/14 06:41:46;;;;;;;0.68;0.35;;;;;;;;;;5037328;28;20348;-58
2024/01/14 06:44:12;;;;;;;0.10;0.00;;;;;;;;;;5036590;28;20629;-58
2024/01/14 06:46:45;;;;;;;0.10;0.10;;;;;;;;;;5032757;28;20045;-59
2024/01/14 06:49:11;;;;;;;0.20;0.20;;;;;;;;;;5035083;28;20073;-59
2024/01/14 06:51:43;;;;;;;0.40;0.10;;;;;;;;;;5019827;28;20057;-59
2024/01/14 06:54:09;;;;;;;1.05;0.10;;;;;;;;;;5033637;28;20582;-59
2024/01/14 06:56:42;;;;;;;0.90;0.10;;;;;;;;;;5037206;28;20041;-59
2024/01/14 06:59:10;;;;;;;0.22;0.10;;;;;;;;;;5033753;28;20152;-58
2024/01/14 07:01:36;;;;;;;0.30;0.20;;;;;;;;;;5031993;28;20559;-59
2024/01/14 07:04:02;;;;;;;0.77;0.13;;;;;;;;;;5037338;28;20041;-58
2024/01/14 07:06:28;;;;;;;2.65;0.13;;;;;;;;;;5035860;28;20178;-59
2024/01/14 07:08:54;;;;;;;2.88;0.55;;;;;;;;;;5036700;28;20065;-59
2024/01/14 07:11:20;;;;;;;3.42;0.85;;;;;;;;;;5043340;28;20399;-59
2024/01/14 07:13:47;;;;;;;0.22;0.13;;;;;;;;;;5038971;28;20432;-59
2024/01/14 07:16:13;;;;;;;3.70;0.30;;;;;;;;;;5041686;28;20042;-59
2024/01/14 07:18:39;;;;;;;1.13;0.22;;;;;;;;;;5041069;28;20048;-59
2024/01/14 07:21:07;;;;;;;0.90;0.30;;;;;;;;;;5036847;28;20133;-59
2024/01/14 07:23:33;;;;;;;0.85;0.20;;;;;;;;;;5036422;28;20041;-59
2024/01/14 07:26:00;;;;;;;0.35;0.15;;;;;;;;;;5039410;28;20485;-59
2024/01/14 07:28:26;;;;;;;0.30;0.20;;;;;;;;;;5037520;28;20064;-59
2024/01/14 07:30:52;;;;;;;0.10;0.10;;;;;;;;;;5038849;28;20044;-59
2024/01/14 07:33:18;;;;;;;1.40;0.30;;;;;;;;;;5040988;28;20040;-59
2024/01/14 07:35:44;;;;;;;1.95;0.20;;;;;;;;;;5021692;28;20467;-59
2024/01/14 07:38:10;;;;;;;1.95;0.25;;;;;;;;;;5037225;28;20148;-59
2024/01/14 07:40:36;;;;;;;0.35;0.22;;;;;;;;;;5036737;28;20379;-59
2024/01/14 07:43:02;;;;;;;0.80;0.52;;;;;;;;;;5038058;28;20046;-59
2024/01/14 07:45:28;;;;;;;0.43;0.22;;;;;;;;;;5034667;28;20383;-59
2024/01/14 07:47:54;;;;;;;0.35;0.10;;;;;;;;;;5035280;28;20040;-59
2024/01/14 07:50:20;;;;;;;0.55;0.20;;;;;;;;;;5038820;28;20045;-59
2024/01/14 07:52:46;;;;;;;0.20;0.10;;;;;;;;;;5033964;28;20041;-59
2024/01/14 07:55:12;;;;;;;0.40;0.20;;;;;;;;;;5031978;28;20053;-59
2024/01/14 07:57:38;;;;;;;0.57;0.25;;;;;;;;;;5036205;28;20049;-59
2024/01/14 08:00:04;;;;;;;0.75;0.17;;;;;;;;;;5036705;28;20037;-59
2024/01/14 08:02:30;;;;;;;0.32;0.10;;;;;;;;;;5037160;28;20056;-59
2024/01/14 08:04:56;;;;;;;0.32;0.10;;;;;;;;;;5039834;28;20080;-59
2024/01/14 08:07:22;;;;;;;0.88;0.13;;;;;;;;;;5034603;28;20065;-59
2024/01/14 08:09:49;;;;;;;0.38;0.38;;;;;;;;;;5033600;28;20512;-59
2024/01/14 08:12:15;;;;;;;0.63;0.47;;;;;;;;;;5040369;28;20139;-59
2024/01/14 08:14:41;;;;;;;2.30;0.50;;;;;;;;;;5037716;28;20301;-59
2024/01/14 08:17:07;;;;;;;0.22;0.10;;;;;;;;;;5034524;28;20144;-59
2024/01/14 08:19:33;;;;;;;0.60;0.32;;;;;;;;;;5038511;28;20646;-59
2024/01/14 08:21:59;;;;;;;1.05;0.25;;;;;;;;;;5032849;28;20045;-59
2024/01/14 08:24:25;;;;;;;0.15;0.10;;;;;;;;;;5039437;28;20128;-59
2024/01/14 08:26:51;;;;;;;0.05;0.05;;;;;;;;;;5039905;28;20114;-59
2024/01/14 08:29:17;;;;;;;0.15;0.15;;;;;;;;;;5038674;28;20040;-59
2024/01/14 08:31:43;;;;;;;0.30;0.10;;;;;;;;;;5040780;28;20077;-59
2024/01/14 08:34:09;;;;;;;0.10;0.08;;;;;;;;;;5036480;28;20542;-59
2024/01/14 08:36:36;;;;;;;1.02;0.17;;;;;;;;;;5035807;28;20127;-59
2024/01/14 08:39:03;;;;;;;0.10;0.10;;;;;;;;;;5032583;28;20102;-59
2024/01/14 08:41:29;;;;;;;0.00;0.00;;;;;;;;;;5008973;28;20077;-60
2024/01/14 08:43:56;;;;;;;0.68;0.40;;;;;;;;;;5038505;28;20403;-60
2024/01/14 08:46:22;;;;;;;1.30;0.20;;;;;;;;;;5036105;28;20088;-63
2024/01/14 08:48:48;;;;;;;1.05;0.10;;;;;;;;;;5036809;28;20124;-60
2024/01/14 08:51:14;;;;;;;1.23;0.10;;;;;;;;;;5035503;28;20465;-59
2024/01/14 08:53:41;;;;;;;0.50;0.20;;;;;;;;;;5027042;28;20565;-59
2024/01/14 08:56:07;;;;;;;0.10;0.10;;;;;;;;;;5026147;28;20117;-59
2024/01/14 08:58:33;;;;;;;0.17;0.00;;;;;;;;;;5024937;28;20507;-59
2024/01/14 09:00:59;;;;;;;0.30;0.20;;;;;;;;;;5032633;28;20049;-60
2024/01/14 09:03:25;;;;;;;1.00;0.30;;;;;;;;;;5045651;28;20048;-60
2024/01/14 09:05:51;;;;;;;0.22;0.20;;;;;;;;;;5042037;28;20076;-60
2024/01/14 09:08:17;;;;;;;0.47;0.43;;;;;;;;;;5036030;28;20076;-60
2024/01/14 09:10:43;;;;;;;0.52;0.13;;;;;;;;;;5042057;28;20061;-60
2024/01/14 09:13:09;;;;;;;0.47;0.25;;;;;;;;;;5038768;28;20041;-60
2024/01/14 09:15:35;;;;;;;1.33;0.70;;;;;;;;;;5039975;28;20479;-60
2024/01/14 09:18:01;;;;;;;1.75;0.50;;;;;;;;;;5040090;28;20045;-60
2024/01/14 09:20:28;;;;;;;1.90;0.20;;;;;;;;;;5042725;28;20037;-61
2024/01/14 09:22:54;;;;;;;2.45;0.32;;;;;;;;;;5038056;28;20557;-60
2024/01/14 09:25:20;;;;;;;2.95;0.80;;;;;;;;;;5042021;28;20045;-60
2024/01/14 09:27:46;;;;;;;7.63;1.48;;;;;;;;;;5040577;28;20470;-60
2024/01/14 09:30:12;;;;;;;0.90;0.20;;;;;;;;;;5036557;28;20080;-59
2024/01/14 09:32:38;;;;;;;1.70;0.50;;;;;;;;;;5039343;28;20502;-60
2024/01/14 09:35:05;;;;;;;2.40;0.35;;;;;;;;;;5034978;28;20103;-60
2024/01/14 09:37:31;;;;;;;0.68;0.40;;;;;;;;;;5044336;28;20059;-59
2024/01/14 09:39:57;;;;;;;1.38;0.22;;;;;;;;;;5044590;28;20412;-60
2024/01/14 09:42:33;;;;;;;1.38;0.45;;;;;;;;;;5042393;28;20049;-60
2024/01/14 09:45:00;;;;;;;1.67;0.60;;;;;;;;;;5041192;28;20498;-60
2024/01/14 09:47:26;;;;;;;1.65;0.35;;;;;;;;;;5041067;28;20048;-60
2024/01/14 09:49:54;;;;;;;2.35;0.35;;;;;;;;;;5031776;28;20069;-59
2024/01/14 09:52:21;;;;;;;2.13;1.10;;;;;;;;;;5031313;28;20041;-59
2024/01/14 09:54:48;;;;;;;2.50;0.65;;;;;;;;;;5016999;28;20392;-60
2024/01/14 09:57:18;;;;;;;2.33;0.77;;;;;;;;;;5029246;28;20124;-60
2024/01/14 09:59:44;;;;;;;1.85;0.70;;;;;;;;;;5034310;28;20379;-59
2024/01/14 10:02:13;;;;;;;2.28;0.47;;;;;;;;;;5035941;28;20040;-59
2024/01/14 10:04:45;;;;;;;3.13;0.63;;;;;;;;;;5035165;28;20072;-59
2024/01/14 10:07:12;;;;;;;1.23;0.50;;;;;;;;;;5043686;28;20072;-60
2024/01/14 10:09:42;;;;;;;2.05;0.43;;;;;;;;;;5038424;28;20061;-59
2024/01/14 10:12:09;;;;;;;2.10;0.65;;;;;;;;;;5033742;28;20129;-59
2024/01/14 10:14:35;;;;;;;0.88;0.47;;;;;;;;;;5037403;28;20045;-59
2024/01/14 10:17:01;;;;;;;3.20;1.13;;;;;;;;;;5037961;28;20040;-59
2024/01/14 10:19:27;;;;;;;1.77;0.40;;;;;;;;;;5040664;28;20037;-59
2024/01/14 10:21:55;;;;;;;3.65;1.02;;;;;;;;;;5036101;28;20063;-60
2024/01/14 10:24:22;;;;;;;5.53;1.10;;;;;;;;;;5040921;28;20052;-59
2024/01/14 10:26:54;;;;;;;4.15;1.20;;;;;;;;;;5037290;28;20091;-59
2024/01/14 10:29:20;;;;;;;7.32;1.35;;;;;;;;;;5039329;28;20049;-59
2024/01/14 10:31:47;;;;;;;4.53;0.90;;;;;;;;;;5016632;28;20049;-59
2024/01/14 10:34:13;;;;;;;4.07;0.77;;;;;;;;;;5035734;28;20041;-60
2024/01/14 10:36:39;;;;;;;6.13;1.20;;;;;;;;;;5034542;28;20078;-59
2024/01/14 10:39:07;;;;;;;3.47;1.52;;;;;;;;;;5015825;28;20234;-61
2024/01/14 10:41:33;;;;;;;2.47;0.68;;;;;;;;;;5037408;28;20060;-58
2024/01/14 10:43:59;;;;;;;2.53;0.50;;;;;;;;;;5034350;28;20034;-61
2024/01/14 10:46:30;;;;;;;1.48;0.45;;;;;;;;;;5027975;28;20414;-59
2024/01/14 10:49:08;;;;;;;0.90;0.30;;;;;;;;;;5032667;28;20402;-60
2024/01/14 10:51:48;;;;;;;1.10;0.40;;;;;;;;;;5034904;28;20094;-62
2024/01/14 10:54:20;;;;;;;1.10;0.68;;;;;;;;;;5031877;28;20041;-62
2024/01/14 10:56:54;;;;;;;3.03;0.70;;;;;;;;;;5013308;28;20048;-61
2024/01/14 10:59:22;;;;;;;1.48;0.80;;;;;;;;;;5035454;28;20048;-60
2024/01/14 11:01:53;;;;;;;3.80;0.55;;;;;;;;;;5033549;28;20482;-59
2024/01/14 11:04:19;;;;;;;2.65;0.57;;;;;;;;;;5026052;28;20116;-60
2024/01/14 11:06:45;;;;;;;1.42;0.75;;;;;;;;;;5036642;28;20049;-62
2024/01/14 11:09:12;;;;;;;0.90;0.77;;;;;;;;;;5042509;28;20037;-61
2024/01/14 11:12:05;;;;;;;0.82;0.20;;;;;;;;;;5028081;28;20053;-62
2024/01/14 11:14:38;;;;;;;1.25;0.38;;;;;;;;;;5028365;28;20537;-59
2024/01/14 11:17:38;;;;;;;0.90;0.60;;;;;;;;;;5032625;28;20037;-59
2024/01/14 11:20:06;;;;;;;1.35;0.30;;;;;;;;;;5035717;28;20045;-61
2024/01/14 11:22:32;;;;;;;1.67;0.52;;;;;;;;;;5037976;28;20127;-61
2024/01/14 11:24:58;;;;;;;1.00;0.30;;;;;;;;;;5035282;28;20410;-62
2024/01/14 11:27:24;;;;;;;1.33;0.45;;;;;;;;;;5039017;28;20090;-58
2024/01/14 11:29:50;;;;;;;1.33;0.30;;;;;;;;;;5038462;28;20041;-61
2024/01/14 11:32:19;;;;;;;1.20;0.32;;;;;;;;;;5035395;28;20037;-57
2024/01/14 11:34:45;;;;;;;1.08;0.30;;;;;;;;;;5033058;28;20048;-57
2024/01/14 11:37:11;;;;;;;3.55;0.60;;;;;;;;;;5040227;28;20411;-59
2024/01/14 11:39:37;;;;;;;1.52;0.57;;;;;;;;;;5035106;28;20037;-58
2024/01/14 11:42:03;;;;;;;0.95;0.60;;;;;;;;;;5030274;28;20041;-61
2024/01/14 11:44:32;;;;;;;0.73;0.52;;;;;;;;;;5037457;28;20044;-57
2024/01/14 11:46:58;;;;;;;2.30;1.15;;;;;;;;;;5029006;28;20085;-62
2024/01/14 11:49:31;;;;;;;0.88;0.45;;;;;;;;;;5030263;28;20410;-61
2024/01/14 11:51:58;;;;;;;3.38;0.73;;;;;;;;;;5011116;28;20052;-60
2024/01/14 11:54:24;;;;;;;3.25;0.90;;;;;;;;;;5028924;28;20046;-60
2024/01/14 11:56:50;;;;;;;2.08;0.50;;;;;;;;;;5029984;28;20518;-61
2024/01/14 11:59:17;;;;;;;2.30;0.70;;;;;;;;;;5036370;28;20080;-59
2024/01/14 12:01:43;;;;;;;1.65;0.57;;;;;;;;;;5026298;28;20048;-60
2024/01/14 12:04:10;;;;;;;4.00;0.57;;;;;;;;;;5034429;28;20581;-60
2024/01/14 12:06:46;;;;;;;3.33;0.57;;;;;;;;;;5038296;28;20044;-60
2024/01/14 12:09:15;;;;;;;1.27;0.32;;;;;;;;;;5042742;28;20041;-59
2024/01/14 12:11:41;;;;;;;1.77;0.68;;;;;;;;;;5044459;28;20052;-61
2024/01/14 12:14:08;;;;;;;3.45;0.77;;;;;;;;;;5042622;28;20467;-61
2024/01/14 12:16:35;;;;;;;2.60;0.55;;;;;;;;;;5041968;28;20044;-60
2024/01/14 12:19:01;;;;;;;1.02;0.38;;;;;;;;;;5039124;28;20096;-59
2024/01/14 12:21:28;;;;;;;2.15;0.40;;;;;;;;;;5041395;28;20101;-60
2024/01/14 12:23:54;;;;;;;1.13;0.47;;;;;;;;;;5037439;28;20045;-59
2024/01/14 12:26:20;;;;;;;0.40;0.30;;;;;;;;;;5037075;28;20041;-60
2024/01/14 12:28:49;;;;;;;7.40;0.60;;;;;;;;;;5040647;28;20207;-60
2024/01/14 12:31:19;;;;;;;2.35;0.50;;;;;;;;;;5041137;28;20261;-59
2024/01/14 12:33:46;;;;;;;1.50;0.50;;;;;;;;;;5041578;28;20048;-59
2024/01/14 12:36:12;;;;;;;1.33;0.43;;;;;;;;;;5040901;28;20570;-60
2024/01/14 12:38:38;;;;;;;2.60;0.47;;;;;;;;;;5042288;28;20033;-60
2024/01/14 12:41:04;;;;;;;1.15;0.40;;;;;;;;;;5034691;28;20037;-59
2024/01/14 12:43:30;;;;;;;0.40;0.30;;;;;;;;;;5034327;28;20092;-60
2024/01/14 12:45:56;;;;;;;1.42;0.30;;;;;;;;;;5034934;28;20392;-60
2024/01/14 12:48:23;;;;;;;3.45;0.30;;;;;;;;;;5037307;28;20076;-60
2024/01/14 12:50:57;;;;;;;1.15;0.47;;;;;;;;;;5044761;28;20072;-59
2024/01/14 12:53:24;;;;;;;0.73;0.20;;;;;;;;;;5046433;28;20191;-60
2024/01/14 12:55:50;;;;;;;0.25;0.20;;;;;;;;;;5047607;28;20045;-58
2024/01/14 12:58:16;;;;;;;1.15;0.20;;;;;;;;;;5047305;28;20043;-60
2024/01/14 13:00:42;;;;;;;0.93;0.15;;;;;;;;;;5045827;28;20055;-58
2024/01/14 13:03:09;;;;;;;1.45;0.30;;;;;;;;;;5030603;28;20033;-62
2024/01/14 13:05:35;;;;;;;1.55;0.35;;;;;;;;;;5032095;28;20454;-61
2024/01/14 13:08:04;;;;;;;2.35;0.77;;;;;;;;;;5035368;28;20454;-60
2024/01/14 13:10:30;;;;;;;0.80;0.32;;;;;;;;;;5042754;28;20156;-60
2024/01/14 13:12:56;;;;;;;0.63;0.30;;;;;;;;;;5045367;28;20052;-59
2024/01/14 13:15:22;;;;;;;0.35;0.28;;;;;;;;;;5028432;28;20397;-59
2024/01/14 13:17:48;;;;;;;0.10;0.10;;;;;;;;;;5046933;28;20072;-60
2024/01/14 13:20:14;;;;;;;0.10;0.10;;;;;;;;;;5048870;28;20045;-60
2024/01/14 13:22:41;;;;;;;0.38;0.28;;;;;;;;;;5049323;28;20040;-60
2024/01/14 13:25:07;;;;;;;0.22;0.10;;;;;;;;;;5031186;28;20076;-59
2024/01/14 13:27:34;;;;;;;0.30;0.10;;;;;;;;;;5047669;28;20048;-60
2024/01/14 13:30:02;;;;;;;0.10;0.10;;;;;;;;;;5046769;28;20045;-60
2024/01/14 13:32:28;;;;;;;0.47;0.10;;;;;;;;;;5047124;28;20037;-60
2024/01/14 13:34:54;;;;;;;0.20;0.20;;;;;;;;;;5048214;28;20491;-59
2024/01/14 13:37:20;;;;;;;1.80;0.38;;;;;;;;;;5045568;28;20044;-60
2024/01/14 13:39:46;;;;;;;0.30;0.30;;;;;;;;;;5048783;28;20121;-60
2024/01/14 13:42:12;;;;;;;2.45;0.40;;;;;;;;;;5040729;28;20514;-59
2024/01/14 13:44:38;;;;;;;0.35;0.17;;;;;;;;;;5047149;28;20124;-60
2024/01/14 13:47:05;;;;;;;1.83;0.40;;;;;;;;;;5047865;28;20037;-60
2024/01/14 13:49:31;;;;;;;0.17;0.10;;;;;;;;;;5040685;28;20037;-60
2024/01/14 13:51:57;;;;;;;1.70;0.15;;;;;;;;;;5038693;28;20033;-60
2024/01/14 13:54:23;;;;;;;1.13;0.20;;;;;;;;;;5038604;28;20044;-60
2024/01/14 13:56:54;;;;;;;0.30;0.10;;;;;;;;;;5033029;28;20041;-61
2024/01/14 13:59:20;;;;;;;1.02;0.50;;;;;;;;;;5037110;28;20045;-61
2024/01/14 14:01:46;;;;;;;0.45;0.13;;;;;;;;;;5044907;28;20052;-61
2024/01/14 14:04:12;;;;;;;1.95;0.30;;;;;;;;;;5041728;28;20049;-60
2024/01/14 14:06:38;;;;;;;0.20;0.10;;;;;;;;;;5033468;28;20033;-59
2024/01/14 14:09:05;;;;;;;0.10;0.00;;;;;;;;;;5041046;28;20045;-60
2024/01/14 14:11:31;;;;;;;2.28;0.25;;;;;;;;;;5034691;28;20049;-60
2024/01/14 14:13:59;;;;;;;0.15;0.13;;;;;;;;;;5036159;28;20414;-60
2024/01/14 14:16:25;;;;;;;0.10;0.10;;;;;;;;;;5036223;28;20267;-59
2024/01/14 14:18:51;;;;;;;0.45;0.20;;;;;;;;;;5044592;28;20037;-58
2024/01/14 14:21:17;;;;;;;0.43;0.10;;;;;;;;;;5039132;28;20175;-59
2024/01/14 14:23:43;;;;;;;0.65;0.10;;;;;;;;;;5040369;28;20503;-60
2024/01/14 14:26:09;;;;;;;0.38;0.13;;;;;;;;;;5042157;28;20049;-59
2024/01/14 14:28:36;;;;;;;0.65;0.50;;;;;;;;;;5044356;28;20693;-59
2024/01/14 14:31:02;;;;;;;0.50;0.45;;;;;;;;;;5035782;28;20445;-60
2024/01/14 14:33:28;;;;;;;0.95;0.40;;;;;;;;;;5034001;28;20032;-60
2024/01/14 14:35:54;;;;;;;1.50;0.60;;;;;;;;;;5037663;28;20033;-60
2024/01/14 14:38:20;;;;;;;0.30;0.13;;;;;;;;;;5035297;28;20029;-60
2024/01/14 14:40:46;;;;;;;1.15;0.32;;;;;;;;;;5024153;28;20104;-60